HETB/TCP METAR and TAF weather

Enter ICAO airport designator
Station Type Date Time Source
HETB METAR 2022/06/23 12:00 UTC NOAA

HETB 231200Z J?


Station Type Date Time Source
HETB Decoded METAR 2022/06/23 12:00 UTC NOAA

Taba, Egypt (HETB) 29-35-57N 034-46-36E
Jun 23, 2022 - 08:00 AM EDT / 2022.06.23 1200 UTC
ob: HETB 231200Z J?
cycle: 12

Station Type Date Time Source
HETB TAF 2022/06/30 18:15 UTC NOAA

TAF HETB 301700Z 3018/0124 03012KT CAVOK

Example: see airport list